sensor_id;sensor_type;location;lat;lon;timestamp;pressure;altitude;pressure_sealevel;temperature;humidity
10064;BME280;5071;52.360;13.134;2023-02-02T00:00:21;100406.16;;;3.98;86.08
10064;BME280;5071;52.360;13.134;2023-02-02T00:05:23;100408.97;;;4.16;85.04
10064;BME280;5071;52.360;13.134;2023-02-02T00:10:27;100411.72;;;4.30;84.28
10064;BME280;5071;52.360;13.134;2023-02-02T00:15:29;100388.06;;;4.28;84.05
10064;BME280;5071;52.360;13.134;2023-02-02T00:20:32;100379.28;;;4.26;84.18
10064;BME280;5071;52.360;13.134;2023-02-02T00:25:35;100402.19;;;4.46;83.59
10064;BME280;5071;52.360;13.134;2023-02-02T00:30:37;100403.16;;;4.60;82.99
10064;BME280;5071;52.360;13.134;2023-02-02T00:35:40;100390.94;;;4.68;82.19
10064;BME280;5071;52.360;13.134;2023-02-02T00:40:44;100392.72;;;4.71;82.63
10064;BME280;5071;52.360;13.134;2023-02-02T00:45:46;100380.47;;;4.78;82.14
10064;BME280;5071;52.360;13.134;2023-02-02T00:50:49;100393.66;;;4.87;81.62
10064;BME280;5071;52.360;13.134;2023-02-02T00:55:53;100382.28;;;4.85;82.08
10064;BME280;5071;52.360;13.134;2023-02-02T01:00:55;100376.16;;;4.95;81.72
10064;BME280;5071;52.360;13.134;2023-02-02T01:05:57;100386.66;;;4.87;83.27
10064;BME280;5071;52.360;13.134;2023-02-02T01:11:01;100363.84;;;4.83;82.76
10064;BME280;5071;52.360;13.134;2023-02-02T01:16:04;100399.84;;;4.94;81.70
10064;BME280;5071;52.360;13.134;2023-02-02T01:21:08;100393.72;;;4.96;82.12
10064;BME280;5071;52.360;13.134;2023-02-02T01:26:13;100391.06;;;4.95;82.23
10064;BME280;5071;52.360;13.134;2023-02-02T01:31:17;100394.59;;;4.98;82.18
10064;BME280;5071;52.360;13.134;2023-02-02T01:36:21;100392.84;;;4.94;82.64
10064;BME280;5071;52.360;13.134;2023-02-02T01:41:25;100410.38;;;4.92;83.80
10064;BME280;5071;52.360;13.134;2023-02-02T01:46:29;100393.66;;;4.84;85.04
10064;BME280;5071;52.360;13.134;2023-02-02T01:51:37;100420.81;;;4.81;85.59
10064;BME280;5071;52.360;13.134;2023-02-02T01:56:47;100420.84;;;4.89;85.31
10064;BME280;5071;52.360;13.134;2023-02-02T02:01:51;100425.25;;;4.90;85.16
10064;BME280;5071;52.360;13.134;2023-02-02T02:06:54;100420.00;;;4.90;85.04
10064;BME280;5071;52.360;13.134;2023-02-02T02:11:57;100413.91;;;5.02;84.34
10064;BME280;5071;52.360;13.134;2023-02-02T02:17:20;100434.03;;;4.95;84.50
10064;BME280;5071;52.360;13.134;2023-02-02T02:22:41;100428.81;;;5.01;84.84
10064;BME280;5071;52.360;13.134;2023-02-02T02:28:04;100431.44;;;4.98;84.27
10064;BME280;5071;52.360;13.134;2023-02-02T02:33:14;100428.84;;;5.07;83.84
10064;BME280;5071;52.360;13.134;2023-02-02T02:38:27;100441.16;;;5.15;83.87
10064;BME280;5071;52.360;13.134;2023-02-02T02:43:33;100432.31;;;5.00;85.16
10064;BME280;5071;52.360;13.134;2023-02-02T02:48:42;100448.03;;;4.91;86.14
10064;BME280;5071;52.360;13.134;2023-02-02T02:54:30;100454.13;;;4.85;86.78
10064;BME280;5071;52.360;13.134;2023-02-02T02:59:41;100481.28;;;4.80;87.25
10064;BME280;5071;52.360;13.134;2023-02-02T03:04:57;100468.06;;;4.71;89.10
10064;BME280;5071;52.360;13.134;2023-02-02T03:10:03;100470.66;;;4.64;89.89
10064;BME280;5071;52.360;13.134;2023-02-02T03:15:07;100484.59;;;4.53;90.96
10064;BME280;5071;52.360;13.134;2023-02-02T03:20:12;100490.66;;;4.48;92.08
10064;BME280;5071;52.360;13.134;2023-02-02T03:25:14;100511.69;;;4.48;91.65
10064;BME280;5071;52.360;13.134;2023-02-02T03:30:16;100502.03;;;4.46;92.07
10064;BME280;5071;52.360;13.134;2023-02-02T03:35:20;100506.38;;;4.42;93.42
10064;BME280;5071;52.360;13.134;2023-02-02T03:40:23;100527.31;;;4.33;94.51
10064;BME280;5071;52.360;13.134;2023-02-02T03:45:26;100535.19;;;4.32;94.95
10064;BME280;5071;52.360;13.134;2023-02-02T03:50:30;100542.13;;;4.23;95.90
10064;BME280;5071;52.360;13.134;2023-02-02T03:55:32;100564.91;;;4.24;96.15
10064;BME280;5071;52.360;13.134;2023-02-02T04:00:35;100565.91;;;4.36;94.08
10064;BME280;5071;52.360;13.134;2023-02-02T04:05:38;100570.34;;;4.43;93.83
10064;BME280;5071;52.360;13.134;2023-02-02T04:11:30;100592.22;;;4.40;93.04
10064;BME280;5071;52.360;13.134;2023-02-02T04:16:32;100598.44;;;4.47;91.85
10064;BME280;5071;52.360;13.134;2023-02-02T04:21:35;100628.25;;;4.49;91.85
10064;BME280;5071;52.360;13.134;2023-02-02T04:26:38;100624.63;;;4.39;91.92
10064;BME280;5071;52.360;13.134;2023-02-02T04:31:40;100648.31;;;4.44;92.03
10064;BME280;5071;52.360;13.134;2023-02-02T04:36:44;100656.16;;;4.39;91.69
10064;BME280;5071;52.360;13.134;2023-02-02T04:42:01;100653.63;;;4.47;90.16
10064;BME280;5071;52.360;13.134;2023-02-02T04:47:04;100673.03;;;4.58;88.82
10064;BME280;5071;52.360;13.134;2023-02-02T04:52:09;100669.41;;;4.50;89.67
10064;BME280;5071;52.360;13.134;2023-02-02T04:57:11;100686.06;;;4.52;88.93
10064;BME280;5071;52.360;13.134;2023-02-02T05:02:14;100696.63;;;4.55;89.88
10064;BME280;5071;52.360;13.134;2023-02-02T05:07:17;100690.47;;;4.52;89.50
10064;BME280;5071;52.360;13.134;2023-02-02T05:12:19;100690.47;;;4.52;89.90
10064;BME280;5071;52.360;13.134;2023-02-02T05:17:21;100700.13;;;4.54;89.53
10064;BME280;5071;52.360;13.134;2023-02-02T05:22:24;100717.72;;;4.61;89.60
10064;BME280;5071;52.360;13.134;2023-02-02T05:27:27;100718.59;;;4.60;89.15
10064;BME280;5071;52.360;13.134;2023-02-02T05:32:29;100731.75;;;4.60;89.43
10064;BME280;5071;52.360;13.134;2023-02-02T05:37:32;100743.94;;;4.55;89.69
10064;BME280;5071;52.360;13.134;2023-02-02T05:42:34;100749.38;;;4.71;89.31
10064;BME280;5071;52.360;13.134;2023-02-02T05:47:37;100761.50;;;4.59;90.10
10064;BME280;5071;52.360;13.134;2023-02-02T05:52:41;100756.34;;;4.65;89.49
10064;BME280;5071;52.360;13.134;2023-02-02T05:57:44;100769.25;;;4.48;89.76
10064;BME280;5071;52.360;13.134;2023-02-02T06:02:46;100786.84;;;4.54;89.71
10064;BME280;5071;52.360;13.134;2023-02-02T06:07:50;100793.13;;;4.62;88.24
10064;BME280;5071;52.360;13.134;2023-02-02T06:12:52;100801.78;;;4.55;88.30
10064;BME280;5071;52.360;13.134;2023-02-02T06:17:54;100805.16;;;4.45;89.07
10064;BME280;5071;52.360;13.134;2023-02-02T06:22:58;100799.06;;;4.49;88.19
10064;BME280;5071;52.360;13.134;2023-02-02T06:28:00;100812.25;;;4.52;88.33
10064;BME280;5071;52.360;13.134;2023-02-02T06:33:03;100829.94;;;4.64;86.87
10064;BME280;5071;52.360;13.134;2023-02-02T06:38:06;100832.53;;;4.61;87.61
10064;BME280;5071;52.360;13.134;2023-02-02T06:43:08;100839.56;;;4.62;88.35
10064;BME280;5071;52.360;13.134;2023-02-02T06:48:10;100851.78;;;4.58;88.71
10064;BME280;5071;52.360;13.134;2023-02-02T06:53:14;100864.66;;;4.43;89.46
10064;BME280;5071;52.360;13.134;2023-02-02T06:58:17;100868.25;;;4.45;89.45
10064;BME280;5071;52.360;13.134;2023-02-02T07:03:20;100863.81;;;4.44;89.95
10064;BME280;5071;52.360;13.134;2023-02-02T07:08:24;100878.84;;;4.51;90.12
10064;BME280;5071;52.360;13.134;2023-02-02T07:13:26;100892.03;;;4.56;89.60
10064;BME280;5071;52.360;13.134;2023-02-02T07:18:28;100898.28;;;4.62;89.99
10064;BME280;5071;52.360;13.134;2023-02-02T07:23:32;100909.63;;;4.60;89.96
10064;BME280;5071;52.360;13.134;2023-02-02T07:28:35;100921.09;;;4.66;89.95
10064;BME280;5071;52.360;13.134;2023-02-02T07:33:37;100926.44;;;4.73;90.04
10064;BME280;5071;52.360;13.134;2023-02-02T07:38:40;100929.81;;;4.62;90.38
10064;BME280;5071;52.360;13.134;2023-02-02T07:43:45;100931.75;;;4.76;90.21
10064;BME280;5071;52.360;13.134;2023-02-02T07:48:48;100939.47;;;4.62;90.59
10064;BME280;5071;52.360;13.134;2023-02-02T07:53:53;100943.91;;;4.69;90.74
10064;BME280;5071;52.360;13.134;2023-02-02T07:58:57;100949.34;;;4.80;89.87
10064;BME280;5071;52.360;13.134;2023-02-02T08:04:00;100963.50;;;4.88;89.74
10064;BME280;5071;52.360;13.134;2023-02-02T08:09:06;100960.13;;;4.98;87.78
10064;BME280;5071;52.360;13.134;2023-02-02T08:14:11;100978.66;;;5.06;87.85
10064;BME280;5071;52.360;13.134;2023-02-02T08:19:14;100983.63;;;4.87;89.00
10064;BME280;5071;52.360;13.134;2023-02-02T08:24:17;100986.00;;;4.67;90.94
10064;BME280;5071;52.360;13.134;2023-02-02T08:29:29;100991.34;;;4.74;89.69
10064;BME280;5071;52.360;13.134;2023-02-02T08:34:32;100999.97;;;4.66;89.48
10064;BME280;5071;52.360;13.134;2023-02-02T08:39:35;101008.88;;;4.75;89.48
10064;BME280;5071;52.360;13.134;2023-02-02T08:44:38;101027.44;;;4.82;88.99
10064;BME280;5071;52.360;13.134;2023-02-02T08:50:00;101032.97;;;5.02;88.32
10064;BME280;5071;52.360;13.134;2023-02-02T08:55:05;101031.88;;;5.49;86.68
10064;BME280;5071;52.360;13.134;2023-02-02T09:00:08;101026.56;;;5.48;86.12
10064;BME280;5071;52.360;13.134;2023-02-02T09:05:11;101032.59;;;5.37;85.87
10064;BME280;5071;52.360;13.134;2023-02-02T09:10:15;101034.47;;;5.48;85.76
10064;BME280;5071;52.360;13.134;2023-02-02T09:15:20;101044.28;;;5.61;84.56
10064;BME280;5071;52.360;13.134;2023-02-02T09:20:22;101030.41;;;5.74;83.94
10064;BME280;5071;52.360;13.134;2023-02-02T09:25:26;101037.84;;;6.05;82.04
10064;BME280;5071;52.360;13.134;2023-02-02T09:30:28;101050.09;;;6.01;83.76
10064;BME280;5071;52.360;13.134;2023-02-02T09:35:31;101060.78;;;6.15;82.37
10064;BME280;5071;52.360;13.134;2023-02-02T09:40:34;101061.59;;;6.09;81.87
10064;BME280;5071;52.360;13.134;2023-02-02T09:45:47;101078.53;;;6.31;81.46
10064;BME280;5071;52.360;13.134;2023-02-02T09:50:56;101086.31;;;6.20;81.82
10064;BME280;5071;52.360;13.134;2023-02-02T09:56:05;101087.28;;;6.27;80.58
10064;BME280;5071;52.360;13.134;2023-02-02T10:01:30;101094.28;;;6.23;79.40
10064;BME280;5071;52.360;13.134;2023-02-02T10:06:36;101080.94;;;6.08;78.30
10064;BME280;5071;52.360;13.134;2023-02-02T10:11:44;101076.16;;;6.60;76.77
10064;BME280;5071;52.360;13.134;2023-02-02T10:16:53;101106.06;;;6.59;75.53
10064;BME280;5071;52.360;13.134;2023-02-02T10:22:01;101100.50;;;6.32;76.52
10064;BME280;5071;52.360;13.134;2023-02-02T10:27:12;101111.63;;;6.05;77.00
10064;BME280;5071;52.360;13.134;2023-02-02T10:32:20;101104.19;;;6.46;76.48
10064;BME280;5071;52.360;13.134;2023-02-02T10:37:29;101120.91;;;6.48;75.36
10064;BME280;5071;52.360;13.134;2023-02-02T10:42:41;101124.78;;;6.06;77.03
10064;BME280;5071;52.360;13.134;2023-02-02T10:47:46;101138.66;;;5.91;79.19
10064;BME280;5071;52.360;13.134;2023-02-02T10:52:52;101141.75;;;5.62;82.82
10064;BME280;5071;52.360;13.134;2023-02-02T10:58:05;101142.78;;;5.74;82.56
10064;BME280;5071;52.360;13.134;2023-02-02T11:03:11;101156.19;;;5.88;81.74
10064;BME280;5071;52.360;13.134;2023-02-02T11:08:16;101162.41;;;7.73;73.74
10064;BME280;5071;52.360;13.134;2023-02-02T11:13:26;101159.75;;;7.70;73.52
10064;BME280;5071;52.360;13.134;2023-02-02T11:18:30;101174.31;;;9.60;66.05
10064;BME280;5071;52.360;13.134;2023-02-02T11:23:56;101179.72;;;12.88;55.35
10064;BME280;5071;52.360;13.134;2023-02-02T11:29:01;101179.41;;;8.25;68.36
10064;BME280;5071;52.360;13.134;2023-02-02T11:34:09;101189.22;;;7.08;73.60
10064;BME280;5071;52.360;13.134;2023-02-02T11:39:15;101186.69;;;7.26;74.86
10064;BME280;5071;52.360;13.134;2023-02-02T11:44:25;101189.78;;;7.85;68.24
10064;BME280;5071;52.360;13.134;2023-02-02T11:49:27;101192.06;;;7.32;72.00
10064;BME280;5071;52.360;13.134;2023-02-02T11:54:31;101197.84;;;6.94;72.51
10064;BME280;5071;52.360;13.134;2023-02-02T11:59:39;101213.78;;;7.00;73.12
10064;BME280;5071;52.360;13.134;2023-02-02T12:04:41;101201.22;;;6.78;72.86
10064;BME280;5071;52.360;13.134;2023-02-02T12:09:44;101196.94;;;6.92;72.61
10064;BME280;5071;52.360;13.134;2023-02-02T12:14:53;101213.63;;;6.88;73.59
10064;BME280;5071;52.360;13.134;2023-02-02T12:20:17;101213.22;;;6.51;75.99
10064;BME280;5071;52.360;13.134;2023-02-02T12:25:45;101209.34;;;6.23;79.53
10064;BME280;5071;52.360;13.134;2023-02-02T12:30:58;101205.72;;;6.13;79.60
10064;BME280;5071;52.360;13.134;2023-02-02T12:36:22;101243.91;;;5.83;81.41
10064;BME280;5071;52.360;13.134;2023-02-02T12:41:35;101240.50;;;5.34;85.80
10064;BME280;5071;52.360;13.134;2023-02-02T12:47:04;101250.97;;;5.33;83.38
10064;BME280;5071;52.360;13.134;2023-02-02T12:52:18;101245.16;;;5.51;83.32
10064;BME280;5071;52.360;13.134;2023-02-02T12:57:28;101257.22;;;5.93;80.61
10064;BME280;5071;52.360;13.134;2023-02-02T13:02:42;101272.69;;;6.28;80.39
10064;BME280;5071;52.360;13.134;2023-02-02T13:07:46;101272.53;;;6.86;78.02
10064;BME280;5071;52.360;13.134;2023-02-02T13:12:54;101280.31;;;6.75;77.98
10064;BME280;5071;52.360;13.134;2023-02-02T13:18:05;101289.31;;;6.89;79.05
10064;BME280;5071;52.360;13.134;2023-02-02T13:23:13;101293.59;;;6.15;80.46
10064;BME280;5071;52.360;13.134;2023-02-02T13:28:31;101311.22;;;5.64;79.38
10064;BME280;5071;52.360;13.134;2023-02-02T13:33:35;101311.63;;;5.37;81.67
10064;BME280;5071;52.360;13.134;2023-02-02T13:38:38;101328.22;;;5.33;81.89
10064;BME280;5071;52.360;13.134;2023-02-02T13:43:51;101348.53;;;5.40;80.78
10064;BME280;5071;52.360;13.134;2023-02-02T13:49:02;101361.41;;;5.25;79.49
10064;BME280;5071;52.360;13.134;2023-02-02T13:59:59;101364.38;;;5.43;79.14
10064;BME280;5071;52.360;13.134;2023-02-02T14:05:06;101381.22;;;5.53;77.53
10064;BME280;5071;52.360;13.134;2023-02-02T14:10:22;101393.06;;;5.75;75.19
10064;BME280;5071;52.360;13.134;2023-02-02T14:15:36;101397.38;;;5.72;75.25
10064;BME280;5071;52.360;13.134;2023-02-02T14:20:45;101397.97;;;5.57;74.51
10064;BME280;5071;52.360;13.134;2023-02-02T14:25:51;101416.97;;;5.40;74.17
10064;BME280;5071;52.360;13.134;2023-02-02T14:31:28;101408.00;;;5.31;73.86
10064;BME280;5071;52.360;13.134;2023-02-02T14:36:35;101428.97;;;5.26;73.76
10064;BME280;5071;52.360;13.134;2023-02-02T14:47:45;101448.69;;;5.04;74.80
10064;BME280;5071;52.360;13.134;2023-02-02T14:52:58;101455.53;;;4.96;75.05
10064;BME280;5071;52.360;13.134;2023-02-02T14:58:42;101471.41;;;5.00;75.14
10064;BME280;5071;52.360;13.134;2023-02-02T15:03:48;101482.97;;;5.09;74.32
10064;BME280;5071;52.360;13.134;2023-02-02T15:14:32;101499.47;;;5.00;74.53
10064;BME280;5071;52.360;13.134;2023-02-02T15:19:38;101508.63;;;4.79;75.17
10064;BME280;5071;52.360;13.134;2023-02-02T15:24:44;101521.56;;;4.70;76.08
10064;BME280;5071;52.360;13.134;2023-02-02T15:29:51;101530.00;;;4.57;76.49
10064;BME280;5071;52.360;13.134;2023-02-02T15:34:58;101540.41;;;4.52;76.65
10064;BME280;5071;52.360;13.134;2023-02-02T15:40:02;101547.09;;;4.39;77.21
10064;BME280;5071;52.360;13.134;2023-02-02T15:45:32;101561.81;;;4.33;77.30
10064;BME280;5071;52.360;13.134;2023-02-02T15:50:36;101566.66;;;4.17;77.94
10064;BME280;5071;52.360;13.134;2023-02-02T15:55:38;101583.94;;;4.09;78.59
10064;BME280;5071;52.360;13.134;2023-02-02T16:00:41;101593.25;;;3.98;78.62
10064;BME280;5071;52.360;13.134;2023-02-02T16:05:46;101602.94;;;3.99;77.78
10064;BME280;5071;52.360;13.134;2023-02-02T16:10:50;101621.75;;;3.84;78.10
10064;BME280;5071;52.360;13.134;2023-02-02T16:16:04;101633.19;;;3.86;77.17
10064;BME280;5071;52.360;13.134;2023-02-02T16:21:14;101639.53;;;3.64;77.62
10064;BME280;5071;52.360;13.134;2023-02-02T16:26:24;101665.13;;;3.42;77.73
10064;BME280;5071;52.360;13.134;2023-02-02T16:31:29;101662.03;;;3.27;78.84
10064;BME280;5071;52.360;13.134;2023-02-02T16:36:31;101674.97;;;3.22;78.79
10064;BME280;5071;52.360;13.134;2023-02-02T16:41:34;101683.84;;;3.00;79.80
10064;BME280;5071;52.360;13.134;2023-02-02T16:46:43;101698.59;;;2.71;81.20
10064;BME280;5071;52.360;13.134;2023-02-02T16:51:48;101701.50;;;2.30;81.94
10064;BME280;5071;52.360;13.134;2023-02-02T16:57:15;101714.00;;;1.91;83.62
10064;BME280;5071;52.360;13.134;2023-02-02T17:02:25;101728.97;;;1.72;85.70
10064;BME280;5071;52.360;13.134;2023-02-02T17:07:29;101732.47;;;1.50;87.70
10064;BME280;5071;52.360;13.134;2023-02-02T17:12:32;101737.34;;;1.41;89.56
10064;BME280;5071;52.360;13.134;2023-02-02T17:17:37;101759.16;;;1.21;90.87
10064;BME280;5071;52.360;13.134;2023-02-02T17:22:41;101743.69;;;0.85;90.47
10064;BME280;5071;52.360;13.134;2023-02-02T17:28:02;101762.13;;;0.68;91.71
10064;BME280;5071;52.360;13.134;2023-02-02T17:33:10;101768.44;;;0.54;93.15
10064;BME280;5071;52.360;13.134;2023-02-02T17:38:12;101772.72;;;0.52;94.57
10064;BME280;5071;52.360;13.134;2023-02-02T17:43:14;101779.09;;;0.39;94.20
10064;BME280;5071;52.360;13.134;2023-02-02T17:48:18;101786.44;;;0.28;94.57
10064;BME280;5071;52.360;13.134;2023-02-02T17:53:21;101794.94;;;0.24;95.45
10064;BME280;5071;52.360;13.134;2023-02-02T17:58:23;101807.19;;;0.25;96.19
10064;BME280;5071;52.360;13.134;2023-02-02T18:03:27;101808.22;;;0.29;96.72
10064;BME280;5071;52.360;13.134;2023-02-02T18:08:34;101817.09;;;0.32;96.89
10064;BME280;5071;52.360;13.134;2023-02-02T18:13:36;101810.06;;;0.31;97.02
10064;BME280;5071;52.360;13.134;2023-02-02T18:18:39;101809.88;;;0.27;97.26
10064;BME280;5071;52.360;13.134;2023-02-02T18:23:41;101813.16;;;0.23;97.48
10064;BME280;5071;52.360;13.134;2023-02-02T18:28:44;101809.28;;;0.14;97.47
10064;BME280;5071;52.360;13.134;2023-02-02T18:33:48;101814.22;;;0.08;98.09
10064;BME280;5071;52.360;13.134;2023-02-02T18:38:50;101812.59;;;-0.08;97.99
10064;BME280;5071;52.360;13.134;2023-02-02T18:43:53;101810.44;;;-0.16;98.64
10064;BME280;5071;52.360;13.134;2023-02-02T18:48:56;101810.59;;;-0.31;98.57
10064;BME280;5071;52.360;13.134;2023-02-02T18:53:58;101791.03;;;-0.40;98.99
10064;BME280;5071;52.360;13.134;2023-02-02T18:59:00;101797.75;;;-0.45;99.41
10064;BME280;5071;52.360;13.134;2023-02-02T19:04:04;101788.97;;;-0.47;99.65
10064;BME280;5071;52.360;13.134;2023-02-02T19:09:07;101798.28;;;-0.52;100.00
10064;BME280;5071;52.360;13.134;2023-02-02T19:14:12;101798.63;;;-0.62;100.00
10064;BME280;5071;52.360;13.134;2023-02-02T19:19:24;101810.22;;;-0.73;100.00
10064;BME280;5071;52.360;13.134;2023-02-02T19:24:35;101805.97;;;-0.71;100.00
10064;BME280;5071;52.360;13.134;2023-02-02T19:29:38;101809.50;;;-0.71;100.00
10064;BME280;5071;52.360;13.134;2023-02-02T19:34:41;101819.84;;;-0.72;100.00
10064;BME280;5071;52.360;13.134;2023-02-02T19:39:44;101824.00;;;-0.76;100.00
10064;BME280;5071;52.360;13.134;2023-02-02T19:44:46;101821.63;;;-0.71;100.00
10064;BME280;5071;52.360;13.134;2023-02-02T19:49:49;101825.22;;;-0.69;100.00
10064;BME280;5071;52.360;13.134;2023-02-02T19:54:52;101829.91;;;-0.62;100.00
10064;BME280;5071;52.360;13.134;2023-02-02T19:59:54;101829.41;;;-0.55;100.00
10064;BME280;5071;52.360;13.134;2023-02-02T20:05:12;101826.88;;;-0.53;100.00
10064;BME280;5071;52.360;13.134;2023-02-02T20:10:21;101828.81;;;-0.49;100.00
10064;BME280;5071;52.360;13.134;2023-02-02T20:15:27;101826.44;;;-0.45;100.00
10064;BME280;5071;52.360;13.134;2023-02-02T20:20:37;101824.81;;;-0.43;100.00
10064;BME280;5071;52.360;13.134;2023-02-02T20:25:40;101824.81;;;-0.43;100.00
10064;BME280;5071;52.360;13.134;2023-02-02T20:30:41;101826.75;;;-0.38;100.00
10064;BME280;5071;52.360;13.134;2023-02-02T20:41:23;101821.81;;;-0.32;100.00
10064;BME280;5071;52.360;13.134;2023-02-02T20:46:24;101812.94;;;-0.36;100.00
10064;BME280;5071;52.360;13.134;2023-02-02T20:51:26;101816.69;;;-0.31;100.00
10064;BME280;5071;52.360;13.134;2023-02-02T20:56:30;101821.09;;;-0.30;100.00
10064;BME280;5071;52.360;13.134;2023-02-02T21:01:32;101803.66;;;-0.31;100.00
10064;BME280;5071;52.360;13.134;2023-02-02T21:06:35;101798.13;;;-0.19;100.00
10064;BME280;5071;52.360;13.134;2023-02-02T21:11:39;101784.81;;;0.30;100.00
10064;BME280;5071;52.360;13.134;2023-02-02T21:16:42;101791.56;;;0.64;100.00
10064;BME280;5071;52.360;13.134;2023-02-02T21:21:44;101786.13;;;0.79;100.00
10064;BME280;5071;52.360;13.134;2023-02-02T21:27:09;101777.38;;;0.98;100.00
10064;BME280;5071;52.360;13.134;2023-02-02T21:32:11;101776.81;;;1.05;99.04
10064;BME280;5071;52.360;13.134;2023-02-02T21:37:38;101769.84;;;1.06;97.95
10064;BME280;5071;52.360;13.134;2023-02-02T21:49:19;101770.88;;;1.09;95.04
10064;BME280;5071;52.360;13.134;2023-02-02T21:54:23;101766.34;;;1.05;94.78
10064;BME280;5071;52.360;13.134;2023-02-02T22:05:45;101756.00;;;0.68;94.67
10064;BME280;5071;52.360;13.134;2023-02-02T22:10:47;101750.69;;;0.86;94.99
10064;BME280;5071;52.360;13.134;2023-02-02T22:15:51;101739.81;;;0.76;94.19
10064;BME280;5071;52.360;13.134;2023-02-02T22:20:55;101731.56;;;0.87;94.65
10064;BME280;5071;52.360;13.134;2023-02-02T22:25:57;101737.63;;;0.86;94.55
10064;BME280;5071;52.360;13.134;2023-02-02T22:30:59;101737.44;;;1.02;95.43
10064;BME280;5071;52.360;13.134;2023-02-02T22:36:30;101743.06;;;1.11;95.14
10064;BME280;5071;52.360;13.134;2023-02-02T22:41:32;101748.06;;;1.05;94.70
10064;BME280;5071;52.360;13.134;2023-02-02T22:46:34;101755.44;;;1.15;95.10
10064;BME280;5071;52.360;13.134;2023-02-02T22:51:38;101763.47;;;1.20;94.95
10064;BME280;5071;52.360;13.134;2023-02-02T22:56:40;101754.88;;;1.23;95.40
10064;BME280;5071;52.360;13.134;2023-02-02T23:01:43;101747.91;;;1.23;95.57
10064;BME280;5071;52.360;13.134;2023-02-02T23:06:46;101748.16;;;1.29;95.56
10064;BME280;5071;52.360;13.134;2023-02-02T23:11:48;101743.06;;;1.32;95.71
10064;BME280;5071;52.360;13.134;2023-02-02T23:16:50;101731.72;;;1.32;95.73
10064;BME280;5071;52.360;13.134;2023-02-02T23:22:06;101724.06;;;1.36;96.09
10064;BME280;5071;52.360;13.134;2023-02-02T23:27:08;101730.25;;;1.39;96.53
10064;BME280;5071;52.360;13.134;2023-02-02T23:32:10;101720.09;;;1.46;95.98
10064;BME280;5071;52.360;13.134;2023-02-02T23:37:14;101720.34;;;1.52;96.48
10064;BME280;5071;52.360;13.134;2023-02-02T23:42:16;101691.50;;;1.51;96.11
10064;BME280;5071;52.360;13.134;2023-02-02T23:47:19;101707.63;;;1.62;95.91
10064;BME280;5071;52.360;13.134;2023-02-02T23:52:22;101692.63;;;1.58;95.98
10064;BME280;5071;52.360;13.134;2023-02-02T23:57:24;101689.91;;;1.54;95.75
